createdAt,value
2022-10-08T00:02:09.631Z,85.08
2022-10-08T00:07:09.416Z,85.29
2022-10-08T00:12:09.343Z,85.39
2022-10-08T00:17:09.284Z,85.53
2022-10-08T00:22:09.207Z,85.53
2022-10-08T00:27:09.148Z,85.43
2022-10-08T00:32:09.075Z,85.63
2022-10-08T00:37:09.012Z,85.94
2022-10-08T00:42:08.939Z,86.38
2022-10-08T00:47:08.876Z,86.69
2022-10-08T00:52:08.802Z,86.79
2022-10-08T00:57:08.741Z,86.89
2022-10-08T01:02:08.831Z,86.99
2022-10-08T01:07:08.614Z,87.30
2022-10-08T01:12:08.535Z,87.34
2022-10-08T01:17:08.475Z,87.24
2022-10-08T01:22:08.405Z,87.38
2022-10-08T01:27:08.347Z,87.38
2022-10-08T01:32:08.373Z,88.13
2022-10-08T01:37:08.417Z,89.05
2022-10-08T01:42:08.149Z,89.60
2022-10-08T01:47:08.103Z,90.35
2022-10-08T01:52:08.032Z,90.96
2022-10-08T01:57:07.956Z,91.27
2022-10-08T02:02:07.960Z,91.47
2022-10-08T02:07:07.827Z,91.47
2022-10-08T02:12:07.753Z,91.78
2022-10-08T02:17:07.730Z,91.88
2022-10-08T02:22:07.618Z,91.63
2022-10-08T02:27:07.565Z,91.73
2022-10-08T02:32:07.573Z,91.83
2022-10-08T02:37:07.434Z,92.04
2022-10-08T02:42:07.351Z,91.94
2022-10-08T02:47:07.292Z,92.04
2022-10-08T02:52:07.219Z,92.14
2022-10-08T02:57:09.501Z,92.14
2022-10-08T03:02:07.155Z,92.18
2022-10-08T03:07:07.032Z,92.39
2022-10-08T03:12:06.955Z,92.39
2022-10-08T03:17:06.892Z,92.59
2022-10-08T03:22:06.819Z,92.70
2022-10-08T03:27:06.767Z,92.70
2022-10-08T03:32:06.695Z,92.59
2022-10-08T03:37:06.627Z,92.94
2022-10-08T03:42:06.580Z,93.20
2022-10-08T03:47:06.500Z,93.31
2022-10-08T03:52:06.453Z,93.31
2022-10-08T03:57:06.466Z,93.10
2022-10-08T04:02:06.307Z,92.90
2022-10-08T04:07:06.233Z,92.70
2022-10-08T04:12:06.175Z,92.39
2022-10-08T04:17:06.101Z,92.39
2022-10-08T04:22:06.045Z,91.88
2022-10-08T04:27:05.973Z,91.78
2022-10-08T04:32:05.915Z,91.27
2022-10-08T04:37:05.849Z,90.86
2022-10-08T04:42:05.785Z,90.46
2022-10-08T04:47:05.712Z,90.25
2022-10-08T04:52:05.653Z,89.78
2022-10-08T04:57:05.578Z,89.48
2022-10-08T05:02:05.599Z,89.28
2022-10-08T05:07:05.444Z,89.17
2022-10-08T05:12:05.385Z,88.97
2022-10-08T05:17:05.313Z,89.01
2022-10-08T05:22:05.262Z,89.01
2022-10-08T05:27:05.177Z,88.67
2022-10-08T05:32:05.128Z,88.81
2022-10-08T05:37:05.045Z,88.91
2022-10-08T05:42:04.993Z,89.48
2022-10-08T05:47:04.914Z,88.67
2022-10-08T05:52:04.857Z,88.26
2022-10-08T05:57:04.773Z,88.05
2022-10-08T06:02:04.713Z,87.95
2022-10-08T06:07:04.641Z,88.05
2022-10-08T06:12:04.579Z,88.05
2022-10-08T06:17:04.504Z,87.95
2022-10-08T06:22:04.447Z,87.30
2022-10-08T06:27:04.441Z,86.45
2022-10-08T06:32:04.315Z,84.53
2022-10-08T06:37:04.243Z,83.34
2022-10-08T06:42:04.198Z,82.39
2022-10-08T06:47:04.186Z,80.52
2022-10-08T06:52:04.064Z,80.73
2022-10-08T06:57:03.983Z,80.93
2022-10-08T07:02:04.025Z,80.69
2022-10-08T07:07:03.848Z,79.74
2022-10-08T07:12:03.802Z,77.09
2022-10-08T07:17:03.714Z,74.93
2022-10-08T07:22:03.666Z,72.50
2022-10-08T07:27:03.601Z,67.87
2022-10-08T07:32:03.528Z,64.42
2022-10-08T07:37:03.454Z,62.76
2022-10-08T07:42:03.388Z,61.85
2022-10-08T07:47:03.321Z,59.99
2022-10-08T07:52:03.254Z,58.10
2022-10-08T07:57:03.188Z,54.26
2022-10-08T08:02:03.214Z,55.94
2022-10-08T08:07:03.044Z,53.83
2022-10-08T08:12:02.987Z,51.22
2022-10-08T08:17:02.914Z,48.21
2022-10-08T08:22:02.854Z,47.47
2022-10-08T08:27:02.785Z,45.05
2022-10-08T08:32:02.813Z,44.09
2022-10-08T08:37:02.655Z,43.91
2022-10-08T08:42:02.603Z,44.62
2022-10-08T08:47:02.533Z,43.57
2022-10-08T08:52:02.469Z,42.46
2022-10-08T08:57:02.401Z,44.76
2022-10-08T09:02:02.328Z,48.10
2022-10-08T09:07:02.268Z,49.84
2022-10-08T09:12:02.212Z,49.94
2022-10-08T09:17:02.248Z,51.81
2022-10-08T09:22:02.074Z,54.09
2022-10-08T09:27:01.993Z,55.62
2022-10-08T09:32:01.938Z,55.95
2022-10-08T09:37:01.876Z,57.91
2022-10-08T09:42:01.810Z,56.55
2022-10-08T09:47:01.732Z,57.11
2022-10-08T09:52:01.679Z,53.29
2022-10-08T09:57:01.606Z,50.46
2022-10-08T10:02:01.548Z,46.82
2022-10-08T10:07:01.481Z,47.72
2022-10-08T10:12:01.417Z,45.70
2022-10-08T10:17:01.449Z,48.82
2022-10-08T10:22:01.285Z,50.74
2022-10-08T10:27:01.219Z,51.97
2022-10-08T10:32:01.166Z,53.14
2022-10-08T10:37:01.087Z,54.92
2022-10-08T10:42:01.020Z,53.21
2022-10-08T10:47:00.959Z,51.12
2022-10-08T10:52:00.901Z,52.59
2022-10-08T10:57:00.834Z,53.19
2022-10-08T11:02:00.841Z,54.77
2022-10-08T11:07:00.717Z,58.28
2022-10-08T11:12:00.626Z,60.47
2022-10-08T11:17:00.570Z,62.79
2022-10-08T11:22:00.503Z,63.26
2022-10-08T11:27:00.435Z,65.13
2022-10-08T11:32:00.373Z,65.53
2022-10-08T11:37:00.305Z,65.63
2022-10-08T11:42:00.237Z,66.27
2022-10-08T11:47:00.166Z,69.28
2022-10-08T11:52:00.104Z,68.61
2022-10-08T11:57:00.029Z,69.08
2022-10-08T12:01:59.961Z,69.72
2022-10-08T12:06:59.891Z,69.51
2022-10-08T12:11:59.826Z,71.13
2022-10-08T12:16:59.780Z,71.46
2022-10-08T12:21:59.702Z,71.26
2022-10-08T12:26:59.634Z,70.35
2022-10-08T12:31:59.554Z,69.41
2022-10-08T12:36:59.502Z,69.01
2022-10-08T12:41:59.419Z,68.94
2022-10-08T12:46:59.433Z,68.57
2022-10-08T12:51:59.291Z,68.60
2022-10-08T12:56:59.229Z,67.70
2022-10-08T13:01:59.247Z,67.09
2022-10-08T13:06:59.094Z,68.03
2022-10-08T13:12:03.245Z,68.54
2022-10-08T13:16:58.965Z,69.58
2022-10-08T13:21:58.882Z,70.11
2022-10-08T13:26:58.832Z,69.51
2022-10-08T13:31:58.750Z,69.91
2022-10-08T13:36:58.708Z,69.37
2022-10-08T13:41:58.618Z,68.26
2022-10-08T13:47:03.280Z,68.84
2022-10-08T13:51:58.491Z,68.54
2022-10-08T13:56:58.433Z,68.94
2022-10-08T14:01:58.429Z,69.04
2022-10-08T14:06:58.295Z,68.94
2022-10-08T14:11:58.413Z,69.07
2022-10-08T14:16:58.300Z,69.78
2022-10-08T14:21:59.085Z,69.68
2022-10-08T14:26:58.025Z,68.43
2022-10-08T14:31:58.066Z,67.52
2022-10-08T14:36:57.939Z,68.37
2022-10-08T14:41:57.824Z,68.46
2022-10-08T14:46:57.932Z,68.87
2022-10-08T14:51:57.684Z,69.31
2022-10-08T14:56:57.649Z,70.05
2022-10-08T15:01:57.566Z,71.09
2022-10-08T15:06:57.498Z,72.03
2022-10-08T15:11:57.419Z,72.37
2022-10-08T15:16:57.364Z,72.68
2022-10-08T15:21:57.282Z,73.12
2022-10-08T15:26:57.498Z,73.42
2022-10-08T15:31:57.223Z,78.79
2022-10-08T15:36:57.101Z,83.02
2022-10-08T15:41:57.017Z,84.01
2022-10-08T15:46:59.369Z,84.35
2022-10-08T15:51:56.881Z,84.53
2022-10-08T15:56:56.835Z,85.59
2022-10-08T16:01:56.815Z,85.73
2022-10-08T16:06:56.682Z,85.94
2022-10-08T16:11:56.609Z,87.10
2022-10-08T16:16:56.666Z,86.59
2022-10-08T16:21:56.477Z,87.60
2022-10-08T16:26:56.417Z,87.60
2022-10-08T16:31:56.345Z,87.20
2022-10-08T16:36:56.287Z,87.04
2022-10-08T16:41:56.213Z,85.65
2022-10-08T16:46:56.165Z,85.96
2022-10-08T16:51:56.083Z,87.22
2022-10-08T16:56:56.033Z,86.85
2022-10-08T17:01:56.228Z,87.16
2022-10-08T17:06:55.900Z,87.40
2022-10-08T17:11:55.813Z,87.60
2022-10-08T17:16:55.842Z,87.75
2022-10-08T17:21:55.682Z,87.95
2022-10-08T17:26:55.619Z,88.26
2022-10-08T17:31:55.544Z,88.40
2022-10-08T17:36:55.484Z,88.61
2022-10-08T17:41:55.410Z,88.71
2022-10-08T17:46:55.351Z,89.42
2022-10-08T17:51:55.277Z,89.73
2022-10-08T17:56:55.215Z,89.73
2022-10-08T18:01:55.230Z,90.14
2022-10-08T18:06:58.583Z,90.24
2022-10-08T18:11:55.007Z,89.83
2022-10-08T18:16:54.949Z,89.73
2022-10-08T18:21:54.875Z,89.53
2022-10-08T18:26:54.817Z,88.91
2022-10-08T18:31:54.741Z,88.30
2022-10-08T18:36:54.683Z,88.40
2022-10-08T18:41:54.619Z,87.93
2022-10-08T18:46:54.547Z,88.65
2022-10-08T18:51:54.484Z,88.69
2022-10-08T18:56:54.415Z,89.00
2022-10-08T19:01:59.026Z,89.75
2022-10-08T19:06:54.283Z,90.06
2022-10-08T19:11:54.225Z,90.47
2022-10-08T19:16:54.150Z,90.51
2022-10-08T19:21:54.075Z,90.72
2022-10-08T19:26:54.021Z,90.92
2022-10-08T19:31:53.940Z,91.13
2022-10-08T19:36:53.883Z,91.37
2022-10-08T19:41:53.833Z,91.27
2022-10-08T19:46:53.827Z,91.27
2022-10-08T19:51:53.677Z,91.88
2022-10-08T19:56:53.613Z,92.50
2022-10-08T20:01:53.620Z,92.40
2022-10-08T20:06:53.479Z,92.60
2022-10-08T20:11:53.415Z,92.64
2022-10-08T20:16:53.344Z,92.64
2022-10-08T20:21:53.281Z,92.64
2022-10-08T20:26:53.210Z,92.95
2022-10-08T20:31:53.144Z,93.10
2022-10-08T20:36:53.076Z,93.20
2022-10-08T20:41:53.024Z,93.40
2022-10-08T20:46:53.007Z,93.40
2022-10-08T20:51:52.867Z,93.51
2022-10-08T20:56:52.809Z,92.99
2022-10-08T21:01:52.778Z,93.30
2022-10-08T21:06:52.671Z,93.45
2022-10-08T21:11:52.597Z,93.75
2022-10-08T21:16:52.537Z,93.45
2022-10-08T21:21:52.471Z,93.49
2022-10-08T21:26:52.403Z,93.18
2022-10-08T21:31:52.405Z,93.29
2022-10-08T21:36:52.268Z,93.53
2022-10-08T21:41:52.204Z,93.64
2022-10-08T21:46:52.136Z,93.84
2022-10-08T21:51:52.070Z,93.84
2022-10-08T21:56:52.004Z,93.89
2022-10-08T22:01:51.960Z,93.78
2022-10-08T22:06:51.867Z,93.78
2022-10-08T22:11:51.792Z,93.89
2022-10-08T22:16:51.737Z,93.93
2022-10-08T22:21:51.662Z,94.03
2022-10-08T22:26:51.606Z,94.24
2022-10-08T22:31:51.607Z,94.24
2022-10-08T22:36:51.473Z,94.48
2022-10-08T22:41:51.405Z,94.59
2022-10-08T22:46:51.337Z,94.69
2022-10-08T22:51:51.275Z,94.79
2022-10-08T22:56:51.205Z,95.00
2022-10-08T23:01:51.244Z,94.90
2022-10-08T23:06:51.074Z,95.00
2022-10-08T23:11:51.012Z,95.20
2022-10-08T23:16:51.080Z,95.10
2022-10-08T23:21:50.866Z,95.00
2022-10-08T23:26:50.817Z,94.79
2022-10-08T23:31:50.783Z,94.69
2022-10-08T23:36:50.683Z,94.79
2022-10-08T23:41:50.600Z,94.84
2022-10-08T23:46:50.554Z,94.94
2022-10-08T23:51:50.465Z,95.05
2022-10-08T23:56:50.415Z,95.25
